sensor_id;sensor_type;location;lat;lon;timestamp;P1;durP1;ratioP1;P2;durP2;ratioP2
50012;SDS011;35901;48.694;9.476;2022-11-03T00:02:12;17.00;;;14.00;;
50012;SDS011;35901;48.694;9.476;2022-11-03T00:04:38;16.43;;;13.07;;
50012;SDS011;35901;48.694;9.476;2022-11-03T00:07:03;16.53;;;12.70;;
50012;SDS011;35901;48.694;9.476;2022-11-03T00:09:29;14.53;;;11.83;;
50012;SDS011;35901;48.694;9.476;2022-11-03T00:11:55;20.73;;;14.30;;
50012;SDS011;35901;48.694;9.476;2022-11-03T00:14:21;17.87;;;13.93;;
50012;SDS011;35901;48.694;9.476;2022-11-03T00:16:47;20.00;;;13.33;;
50012;SDS011;35901;48.694;9.476;2022-11-03T00:19:13;15.07;;;12.37;;
50012;SDS011;35901;48.694;9.476;2022-11-03T00:21:40;14.87;;;11.67;;
50012;SDS011;35901;48.694;9.476;2022-11-03T00:24:06;15.60;;;11.47;;
50012;SDS011;35901;48.694;9.476;2022-11-03T00:26:32;18.53;;;12.03;;
50012;SDS011;35901;48.694;9.476;2022-11-03T00:29:00;12.40;;;10.60;;
50012;SDS011;35901;48.694;9.476;2022-11-03T00:31:31;13.80;;;10.17;;
50012;SDS011;35901;48.694;9.476;2022-11-03T00:33:59;16.97;;;11.80;;
50012;SDS011;35901;48.694;9.476;2022-11-03T00:36:26;14.90;;;11.20;;
50012;SDS011;35901;48.694;9.476;2022-11-03T00:38:57;19.10;;;13.40;;
50012;SDS011;35901;48.694;9.476;2022-11-03T00:41:23;15.73;;;11.73;;
50012;SDS011;35901;48.694;9.476;2022-11-03T00:43:50;18.87;;;13.27;;
50012;SDS011;35901;48.694;9.476;2022-11-03T00:46:17;18.77;;;12.93;;
50012;SDS011;35901;48.694;9.476;2022-11-03T00:48:44;15.40;;;12.57;;
50012;SDS011;35901;48.694;9.476;2022-11-03T00:53:42;14.27;;;11.40;;
50012;SDS011;35901;48.694;9.476;2022-11-03T00:56:28;15.47;;;12.07;;
50012;SDS011;35901;48.694;9.476;2022-11-03T00:58:59;12.77;;;10.77;;
50012;SDS011;35901;48.694;9.476;2022-11-03T01:01:30;16.47;;;10.97;;
50012;SDS011;35901;48.694;9.476;2022-11-03T01:03:57;17.07;;;11.33;;
50012;SDS011;35901;48.694;9.476;2022-11-03T01:06:56;14.13;;;11.10;;
50012;SDS011;35901;48.694;9.476;2022-11-03T01:09:27;12.70;;;10.27;;
50012;SDS011;35901;48.694;9.476;2022-11-03T01:14:37;13.67;;;10.77;;
50012;SDS011;35901;48.694;9.476;2022-11-03T01:17:12;16.73;;;11.47;;
50012;SDS011;35901;48.694;9.476;2022-11-03T01:19:39;14.43;;;9.87;;
50012;SDS011;35901;48.694;9.476;2022-11-03T01:22:05;18.37;;;12.27;;
50012;SDS011;35901;48.694;9.476;2022-11-03T01:24:31;15.87;;;11.47;;
50012;SDS011;35901;48.694;9.476;2022-11-03T01:26:58;16.60;;;11.03;;
50012;SDS011;35901;48.694;9.476;2022-11-03T01:29:23;16.93;;;11.63;;
50012;SDS011;35901;48.694;9.476;2022-11-03T01:31:49;17.97;;;11.73;;
50012;SDS011;35901;48.694;9.476;2022-11-03T01:34:15;17.43;;;12.70;;
50012;SDS011;35901;48.694;9.476;2022-11-03T01:36:42;18.37;;;10.97;;
50012;SDS011;35901;48.694;9.476;2022-11-03T01:39:09;16.27;;;11.47;;
50012;SDS011;35901;48.694;9.476;2022-11-03T01:41:36;16.77;;;11.07;;
50012;SDS011;35901;48.694;9.476;2022-11-03T01:46:31;15.80;;;10.37;;
50012;SDS011;35901;48.694;9.476;2022-11-03T01:49:02;15.73;;;11.63;;
50012;SDS011;35901;48.694;9.476;2022-11-03T01:51:35;16.13;;;11.23;;
50012;SDS011;35901;48.694;9.476;2022-11-03T01:54:04;12.57;;;9.70;;
50012;SDS011;35901;48.694;9.476;2022-11-03T01:56:34;12.17;;;9.73;;
50012;SDS011;35901;48.694;9.476;2022-11-03T01:59:05;14.13;;;10.70;;
50012;SDS011;35901;48.694;9.476;2022-11-03T02:01:31;14.23;;;11.40;;
50012;SDS011;35901;48.694;9.476;2022-11-03T02:04:01;16.43;;;11.23;;
50012;SDS011;35901;48.694;9.476;2022-11-03T02:06:32;11.77;;;9.43;;
50012;SDS011;35901;48.694;9.476;2022-11-03T02:09:02;15.37;;;11.67;;
50012;SDS011;35901;48.694;9.476;2022-11-03T02:11:30;10.47;;;8.87;;
50012;SDS011;35901;48.694;9.476;2022-11-03T02:14:15;9.97;;;8.70;;
50012;SDS011;35901;48.694;9.476;2022-11-03T02:16:45;18.70;;;12.20;;
50012;SDS011;35901;48.694;9.476;2022-11-03T02:19:19;16.93;;;12.13;;
50012;SDS011;35901;48.694;9.476;2022-11-03T02:22:05;19.57;;;12.20;;
50012;SDS011;35901;48.694;9.476;2022-11-03T02:27:38;17.30;;;12.40;;
50012;SDS011;35901;48.694;9.476;2022-11-03T02:30:04;16.83;;;11.93;;
50012;SDS011;35901;48.694;9.476;2022-11-03T02:32:32;16.43;;;12.03;;
50012;SDS011;35901;48.694;9.476;2022-11-03T02:35:18;15.13;;;10.90;;
50012;SDS011;35901;48.694;9.476;2022-11-03T02:38:15;18.70;;;13.50;;
50012;SDS011;35901;48.694;9.476;2022-11-03T02:40:45;17.77;;;14.03;;
50012;SDS011;35901;48.694;9.476;2022-11-03T02:43:14;18.33;;;12.40;;
50012;SDS011;35901;48.694;9.476;2022-11-03T02:45:42;17.83;;;12.77;;
50012;SDS011;35901;48.694;9.476;2022-11-03T02:48:10;19.83;;;13.70;;
50012;SDS011;35901;48.694;9.476;2022-11-03T02:50:38;13.90;;;11.53;;
50012;SDS011;35901;48.694;9.476;2022-11-03T02:53:04;16.33;;;12.60;;
50012;SDS011;35901;48.694;9.476;2022-11-03T03:01:18;14.63;;;10.30;;
50012;SDS011;35901;48.694;9.476;2022-11-03T03:04:25;15.10;;;10.03;;
50012;SDS011;35901;48.694;9.476;2022-11-03T03:07:02;14.17;;;10.63;;
50012;SDS011;35901;48.694;9.476;2022-11-03T03:09:33;17.07;;;12.33;;
50012;SDS011;35901;48.694;9.476;2022-11-03T03:12:05;14.37;;;10.47;;
50012;SDS011;35901;48.694;9.476;2022-11-03T03:14:34;16.43;;;12.87;;
50012;SDS011;35901;48.694;9.476;2022-11-03T03:17:12;15.57;;;11.80;;
50012;SDS011;35901;48.694;9.476;2022-11-03T03:22:24;16.43;;;12.90;;
50012;SDS011;35901;48.694;9.476;2022-11-03T03:25:03;13.87;;;11.40;;
50012;SDS011;35901;48.694;9.476;2022-11-03T03:27:40;20.33;;;14.47;;
50012;SDS011;35901;48.694;9.476;2022-11-03T03:30:10;18.50;;;15.03;;
50012;SDS011;35901;48.694;9.476;2022-11-03T03:32:37;13.77;;;11.57;;
50012;SDS011;35901;48.694;9.476;2022-11-03T03:35:07;25.17;;;13.13;;
50012;SDS011;35901;48.694;9.476;2022-11-03T03:37:38;17.57;;;13.03;;
50012;SDS011;35901;48.694;9.476;2022-11-03T03:40:07;24.10;;;12.17;;
50012;SDS011;35901;48.694;9.476;2022-11-03T03:42:36;16.63;;;11.00;;
50012;SDS011;35901;48.694;9.476;2022-11-03T03:45:04;45.17;;;13.57;;
50012;SDS011;35901;48.694;9.476;2022-11-03T03:47:32;20.07;;;10.53;;
50012;SDS011;35901;48.694;9.476;2022-11-03T03:49:59;16.03;;;11.77;;
50012;SDS011;35901;48.694;9.476;2022-11-03T03:52:26;22.30;;;11.80;;
50012;SDS011;35901;48.694;9.476;2022-11-03T03:54:53;20.03;;;11.60;;
50012;SDS011;35901;48.694;9.476;2022-11-03T03:57:20;14.40;;;10.63;;
50012;SDS011;35901;48.694;9.476;2022-11-03T03:59:48;27.10;;;12.77;;
50012;SDS011;35901;48.694;9.476;2022-11-03T04:02:14;39.73;;;12.70;;
50012;SDS011;35901;48.694;9.476;2022-11-03T04:04:40;39.87;;;12.60;;
50012;SDS011;35901;48.694;9.476;2022-11-03T04:07:06;38.93;;;12.20;;
50012;SDS011;35901;48.694;9.476;2022-11-03T04:09:50;27.53;;;10.83;;
50012;SDS011;35901;48.694;9.476;2022-11-03T04:12:16;16.83;;;10.97;;
50012;SDS011;35901;48.694;9.476;2022-11-03T04:15:00;21.70;;;12.03;;
50012;SDS011;35901;48.694;9.476;2022-11-03T04:17:45;31.10;;;12.27;;
50012;SDS011;35901;48.694;9.476;2022-11-03T04:20:31;67.47;;;15.83;;
50012;SDS011;35901;48.694;9.476;2022-11-03T04:23:16;17.77;;;11.13;;
50012;SDS011;35901;48.694;9.476;2022-11-03T04:25:52;31.50;;;13.33;;
50012;SDS011;35901;48.694;9.476;2022-11-03T04:28:19;28.20;;;12.23;;
50012;SDS011;35901;48.694;9.476;2022-11-03T04:30:46;49.17;;;12.57;;
50012;SDS011;35901;48.694;9.476;2022-11-03T04:33:18;16.43;;;11.67;;
50012;SDS011;35901;48.694;9.476;2022-11-03T04:35:45;18.83;;;13.10;;
50012;SDS011;35901;48.694;9.476;2022-11-03T04:40:40;15.70;;;12.70;;
50012;SDS011;35901;48.694;9.476;2022-11-03T04:43:29;22.37;;;14.63;;
50012;SDS011;35901;48.694;9.476;2022-11-03T04:45:57;19.77;;;13.87;;
50012;SDS011;35901;48.694;9.476;2022-11-03T04:48:23;19.93;;;14.10;;
50012;SDS011;35901;48.694;9.476;2022-11-03T04:50:52;14.17;;;11.73;;
50012;SDS011;35901;48.694;9.476;2022-11-03T04:53:20;19.20;;;13.90;;
50012;SDS011;35901;48.694;9.476;2022-11-03T04:55:48;17.07;;;12.50;;
50012;SDS011;35901;48.694;9.476;2022-11-03T04:58:20;19.30;;;13.00;;
50012;SDS011;35901;48.694;9.476;2022-11-03T05:00:51;13.40;;;10.23;;
50012;SDS011;35901;48.694;9.476;2022-11-03T05:03:29;13.80;;;10.43;;
50012;SDS011;35901;48.694;9.476;2022-11-03T05:06:09;15.70;;;11.03;;
50012;SDS011;35901;48.694;9.476;2022-11-03T05:08:38;17.67;;;11.73;;
50012;SDS011;35901;48.694;9.476;2022-11-03T05:11:08;14.23;;;10.43;;
50012;SDS011;35901;48.694;9.476;2022-11-03T05:13:41;18.97;;;12.13;;
50012;SDS011;35901;48.694;9.476;2022-11-03T05:16:07;17.57;;;11.77;;
50012;SDS011;35901;48.694;9.476;2022-11-03T05:18:34;15.67;;;11.63;;
50012;SDS011;35901;48.694;9.476;2022-11-03T05:21:02;23.23;;;11.90;;
50012;SDS011;35901;48.694;9.476;2022-11-03T05:23:40;16.10;;;11.30;;
50012;SDS011;35901;48.694;9.476;2022-11-03T05:26:19;19.50;;;12.27;;
50012;SDS011;35901;48.694;9.476;2022-11-03T05:28:51;14.77;;;10.40;;
50012;SDS011;35901;48.694;9.476;2022-11-03T05:31:25;18.70;;;12.20;;
50012;SDS011;35901;48.694;9.476;2022-11-03T05:33:55;14.47;;;10.40;;
50012;SDS011;35901;48.694;9.476;2022-11-03T05:36:23;13.33;;;10.20;;
50012;SDS011;35901;48.694;9.476;2022-11-03T05:38:50;11.60;;;9.50;;
50012;SDS011;35901;48.694;9.476;2022-11-03T05:41:22;12.77;;;9.27;;
50012;SDS011;35901;48.694;9.476;2022-11-03T05:43:55;19.37;;;12.13;;
50012;SDS011;35901;48.694;9.476;2022-11-03T05:46:26;20.20;;;12.20;;
50012;SDS011;35901;48.694;9.476;2022-11-03T05:48:55;24.57;;;11.57;;
50012;SDS011;35901;48.694;9.476;2022-11-03T05:51:22;19.23;;;10.30;;
50012;SDS011;35901;48.694;9.476;2022-11-03T05:53:54;14.60;;;10.40;;
50012;SDS011;35901;48.694;9.476;2022-11-03T05:56:23;28.10;;;11.63;;
50012;SDS011;35901;48.694;9.476;2022-11-03T05:58:50;21.37;;;12.27;;
50012;SDS011;35901;48.694;9.476;2022-11-03T06:03:44;24.93;;;13.20;;
50012;SDS011;35901;48.694;9.476;2022-11-03T06:06:21;27.87;;;14.23;;
50012;SDS011;35901;48.694;9.476;2022-11-03T06:08:51;27.47;;;13.70;;
50012;SDS011;35901;48.694;9.476;2022-11-03T06:11:26;33.13;;;13.53;;
50012;SDS011;35901;48.694;9.476;2022-11-03T06:13:56;50.10;;;16.07;;
50012;SDS011;35901;48.694;9.476;2022-11-03T06:16:31;25.67;;;13.13;;
50012;SDS011;35901;48.694;9.476;2022-11-03T06:19:21;24.57;;;13.27;;
50012;SDS011;35901;48.694;9.476;2022-11-03T06:21:51;45.27;;;15.93;;
50012;SDS011;35901;48.694;9.476;2022-11-03T06:24:21;38.03;;;17.43;;
50012;SDS011;35901;48.694;9.476;2022-11-03T06:26:49;67.67;;;24.23;;
50012;SDS011;35901;48.694;9.476;2022-11-03T06:29:17;58.00;;;21.63;;
50012;SDS011;35901;48.694;9.476;2022-11-03T06:31:46;21.50;;;15.20;;
50012;SDS011;35901;48.694;9.476;2022-11-03T06:34:33;21.50;;;15.20;;
50012;SDS011;35901;48.694;9.476;2022-11-03T06:37:17;18.87;;;13.93;;
50012;SDS011;35901;48.694;9.476;2022-11-03T06:39:45;19.57;;;13.33;;
50012;SDS011;35901;48.694;9.476;2022-11-03T06:42:16;17.77;;;12.50;;
50012;SDS011;35901;48.694;9.476;2022-11-03T06:44:45;18.10;;;12.50;;
50012;SDS011;35901;48.694;9.476;2022-11-03T06:47:19;16.77;;;13.17;;
50012;SDS011;35901;48.694;9.476;2022-11-03T06:49:48;20.63;;;13.33;;
50012;SDS011;35901;48.694;9.476;2022-11-03T06:55:01;23.17;;;14.13;;
50012;SDS011;35901;48.694;9.476;2022-11-03T06:57:37;16.23;;;12.90;;
50012;SDS011;35901;48.694;9.476;2022-11-03T07:00:13;27.97;;;14.97;;
50012;SDS011;35901;48.694;9.476;2022-11-03T07:05:34;45.13;;;17.17;;
50012;SDS011;35901;48.694;9.476;2022-11-03T07:10:49;24.10;;;15.37;;
50012;SDS011;35901;48.694;9.476;2022-11-03T07:13:21;26.17;;;13.70;;
50012;SDS011;35901;48.694;9.476;2022-11-03T07:15:49;23.10;;;14.17;;
50012;SDS011;35901;48.694;9.476;2022-11-03T07:18:19;22.10;;;13.70;;
50012;SDS011;35901;48.694;9.476;2022-11-03T07:21:00;18.87;;;13.30;;
50012;SDS011;35901;48.694;9.476;2022-11-03T07:23:31;21.33;;;13.60;;
50012;SDS011;35901;48.694;9.476;2022-11-03T07:25:57;19.73;;;12.47;;
50012;SDS011;35901;48.694;9.476;2022-11-03T07:28:26;19.67;;;13.97;;
50012;SDS011;35901;48.694;9.476;2022-11-03T07:30:57;19.90;;;15.30;;
50012;SDS011;35901;48.694;9.476;2022-11-03T07:33:25;19.47;;;16.10;;
50012;SDS011;35901;48.694;9.476;2022-11-03T07:35:53;20.63;;;15.67;;
50012;SDS011;35901;48.694;9.476;2022-11-03T07:38:21;23.70;;;16.73;;
50012;SDS011;35901;48.694;9.476;2022-11-03T07:40:49;21.27;;;15.43;;
50012;SDS011;35901;48.694;9.476;2022-11-03T07:43:29;21.70;;;14.40;;
50012;SDS011;35901;48.694;9.476;2022-11-03T07:46:00;25.20;;;14.50;;
50012;SDS011;35901;48.694;9.476;2022-11-03T07:48:35;18.60;;;13.70;;
50012;SDS011;35901;48.694;9.476;2022-11-03T07:51:23;14.90;;;12.97;;
50012;SDS011;35901;48.694;9.476;2022-11-03T07:56:59;12.70;;;11.20;;
50012;SDS011;35901;48.694;9.476;2022-11-03T07:59:38;12.03;;;10.83;;
50012;SDS011;35901;48.694;9.476;2022-11-03T08:05:02;11.17;;;10.13;;
50012;SDS011;35901;48.694;9.476;2022-11-03T08:07:29;10.27;;;9.27;;
50012;SDS011;35901;48.694;9.476;2022-11-03T08:09:55;11.20;;;10.00;;
50012;SDS011;35901;48.694;9.476;2022-11-03T08:12:21;13.07;;;11.67;;
50012;SDS011;35901;48.694;9.476;2022-11-03T08:14:47;13.47;;;11.47;;
50012;SDS011;35901;48.694;9.476;2022-11-03T08:17:12;15.97;;;12.77;;
50012;SDS011;35901;48.694;9.476;2022-11-03T08:19:38;13.83;;;12.43;;
50012;SDS011;35901;48.694;9.476;2022-11-03T08:22:04;11.93;;;10.40;;
50012;SDS011;35901;48.694;9.476;2022-11-03T08:24:30;11.93;;;10.73;;
50012;SDS011;35901;48.694;9.476;2022-11-03T08:26:56;11.53;;;10.33;;
50012;SDS011;35901;48.694;9.476;2022-11-03T08:29:21;10.80;;;9.77;;
50012;SDS011;35901;48.694;9.476;2022-11-03T08:31:49;11.80;;;10.60;;
50012;SDS011;35901;48.694;9.476;2022-11-03T08:34:14;11.87;;;10.63;;
50012;SDS011;35901;48.694;9.476;2022-11-03T08:36:40;11.80;;;10.60;;
50012;SDS011;35901;48.694;9.476;2022-11-03T08:39:06;12.13;;;9.50;;
50012;SDS011;35901;48.694;9.476;2022-11-03T08:41:31;10.03;;;9.03;;
50012;SDS011;35901;48.694;9.476;2022-11-03T08:43:57;14.07;;;10.53;;
50012;SDS011;35901;48.694;9.476;2022-11-03T08:46:23;12.83;;;10.00;;
50012;SDS011;35901;48.694;9.476;2022-11-03T08:48:48;9.80;;;8.80;;
50012;SDS011;35901;48.694;9.476;2022-11-03T08:51:14;8.97;;;7.73;;
50012;SDS011;35901;48.694;9.476;2022-11-03T08:53:40;7.60;;;6.97;;
50012;SDS011;35901;48.694;9.476;2022-11-03T08:56:09;8.13;;;6.80;;
50012;SDS011;35901;48.694;9.476;2022-11-03T08:58:35;7.60;;;6.80;;
50012;SDS011;35901;48.694;9.476;2022-11-03T09:01:01;7.73;;;6.97;;
50012;SDS011;35901;48.694;9.476;2022-11-03T09:03:27;7.97;;;7.17;;
50012;SDS011;35901;48.694;9.476;2022-11-03T09:05:52;11.20;;;8.03;;
50012;SDS011;35901;48.694;9.476;2022-11-03T09:08:18;8.17;;;6.60;;
50012;SDS011;35901;48.694;9.476;2022-11-03T09:10:43;9.20;;;7.50;;
50012;SDS011;35901;48.694;9.476;2022-11-03T09:13:09;11.03;;;6.83;;
50012;SDS011;35901;48.694;9.476;2022-11-03T09:15:35;9.20;;;7.20;;
50012;SDS011;35901;48.694;9.476;2022-11-03T09:18:01;8.33;;;7.40;;
50012;SDS011;35901;48.694;9.476;2022-11-03T09:20:26;9.03;;;6.67;;
50012;SDS011;35901;48.694;9.476;2022-11-03T09:22:52;8.73;;;7.10;;
50012;SDS011;35901;48.694;9.476;2022-11-03T09:25:18;7.10;;;6.27;;
50012;SDS011;35901;48.694;9.476;2022-11-03T09:27:44;8.20;;;6.60;;
50012;SDS011;35901;48.694;9.476;2022-11-03T09:30:10;7.60;;;6.80;;
50012;SDS011;35901;48.694;9.476;2022-11-03T09:32:36;7.87;;;6.83;;
50012;SDS011;35901;48.694;9.476;2022-11-03T09:35:03;6.70;;;6.10;;
50012;SDS011;35901;48.694;9.476;2022-11-03T09:37:29;7.47;;;6.80;;
50012;SDS011;35901;48.694;9.476;2022-11-03T09:39:55;7.47;;;6.23;;
50012;SDS011;35901;48.694;9.476;2022-11-03T09:42:20;8.10;;;6.03;;
50012;SDS011;35901;48.694;9.476;2022-11-03T09:44:47;8.13;;;6.30;;
50012;SDS011;35901;48.694;9.476;2022-11-03T09:47:18;7.07;;;5.97;;
50012;SDS011;35901;48.694;9.476;2022-11-03T09:49:51;6.90;;;5.87;;
50012;SDS011;35901;48.694;9.476;2022-11-03T09:52:19;7.17;;;5.67;;
50012;SDS011;35901;48.694;9.476;2022-11-03T09:54:47;6.50;;;5.37;;
50012;SDS011;35901;48.694;9.476;2022-11-03T09:57:14;6.80;;;5.73;;
50012;SDS011;35901;48.694;9.476;2022-11-03T09:59:41;7.00;;;5.03;;
50012;SDS011;35901;48.694;9.476;2022-11-03T10:02:14;7.37;;;5.23;;
50012;SDS011;35901;48.694;9.476;2022-11-03T10:04:52;5.50;;;5.00;;
50012;SDS011;35901;48.694;9.476;2022-11-03T10:07:20;5.90;;;5.40;;
50012;SDS011;35901;48.694;9.476;2022-11-03T10:09:47;6.87;;;5.60;;
50012;SDS011;35901;48.694;9.476;2022-11-03T10:12:15;6.23;;;4.83;;
50012;SDS011;35901;48.694;9.476;2022-11-03T10:14:41;6.67;;;5.43;;
50012;SDS011;35901;48.694;9.476;2022-11-03T10:17:13;7.20;;;5.33;;
50012;SDS011;35901;48.694;9.476;2022-11-03T10:19:41;6.63;;;5.30;;
50012;SDS011;35901;48.694;9.476;2022-11-03T10:22:08;5.60;;;5.10;;
50012;SDS011;35901;48.694;9.476;2022-11-03T10:24:33;6.53;;;4.90;;
50012;SDS011;35901;48.694;9.476;2022-11-03T10:26:59;6.77;;;5.33;;
50012;SDS011;35901;48.694;9.476;2022-11-03T10:29:26;7.30;;;5.40;;
50012;SDS011;35901;48.694;9.476;2022-11-03T10:31:56;6.40;;;5.70;;
50012;SDS011;35901;48.694;9.476;2022-11-03T10:39:49;6.90;;;5.37;;
50012;SDS011;35901;48.694;9.476;2022-11-03T10:44:44;6.60;;;5.37;;
50012;SDS011;35901;48.694;9.476;2022-11-03T10:47:21;6.23;;;5.63;;
50012;SDS011;35901;48.694;9.476;2022-11-03T10:49:55;8.13;;;5.93;;
50012;SDS011;35901;48.694;9.476;2022-11-03T10:52:21;6.67;;;5.80;;
50012;SDS011;35901;48.694;9.476;2022-11-03T10:54:49;7.10;;;5.90;;
50012;SDS011;35901;48.694;9.476;2022-11-03T10:57:17;8.10;;;5.87;;
50012;SDS011;35901;48.694;9.476;2022-11-03T10:59:44;6.50;;;5.00;;
50012;SDS011;35901;48.694;9.476;2022-11-03T11:02:15;6.53;;;5.27;;
50012;SDS011;35901;48.694;9.476;2022-11-03T11:04:47;6.23;;;5.23;;
50012;SDS011;35901;48.694;9.476;2022-11-03T11:10:01;6.80;;;5.50;;
50012;SDS011;35901;48.694;9.476;2022-11-03T11:12:30;6.70;;;5.90;;
50012;SDS011;35901;48.694;9.476;2022-11-03T11:14:56;6.37;;;5.67;;
50012;SDS011;35901;48.694;9.476;2022-11-03T11:17:45;5.77;;;5.27;;
50012;SDS011;35901;48.694;9.476;2022-11-03T11:22:43;6.87;;;5.60;;
50012;SDS011;35901;48.694;9.476;2022-11-03T11:25:09;8.40;;;4.93;;
50012;SDS011;35901;48.694;9.476;2022-11-03T11:32:59;7.70;;;5.50;;
50012;SDS011;35901;48.694;9.476;2022-11-03T11:41:05;6.00;;;5.40;;
50012;SDS011;35901;48.694;9.476;2022-11-03T11:43:31;6.00;;;5.40;;
50012;SDS011;35901;48.694;9.476;2022-11-03T11:49:34;7.30;;;5.70;;
50012;SDS011;35901;48.694;9.476;2022-11-03T11:51:40;7.07;;;5.90;;
50012;SDS011;35901;48.694;9.476;2022-11-03T11:54:07;6.87;;;5.80;;
50012;SDS011;35901;48.694;9.476;2022-11-03T11:56:41;6.93;;;6.00;;
50012;SDS011;35901;48.694;9.476;2022-11-03T11:59:15;7.20;;;5.93;;
50012;SDS011;35901;48.694;9.476;2022-11-03T12:01:50;6.90;;;4.97;;
50012;SDS011;35901;48.694;9.476;2022-11-03T12:04:27;5.80;;;5.20;;
50012;SDS011;35901;48.694;9.476;2022-11-03T12:06:55;5.77;;;5.27;;
50012;SDS011;35901;48.694;9.476;2022-11-03T12:09:23;6.87;;;5.23;;
50012;SDS011;35901;48.694;9.476;2022-11-03T12:11:54;6.20;;;5.70;;
50012;SDS011;35901;48.694;9.476;2022-11-03T12:16:53;7.70;;;6.20;;
50012;SDS011;35901;48.694;9.476;2022-11-03T12:22:10;6.23;;;5.53;;
50012;SDS011;35901;48.694;9.476;2022-11-03T12:24:37;8.30;;;5.90;;
50012;SDS011;35901;48.694;9.476;2022-11-03T12:27:16;10.00;;;6.83;;
50012;SDS011;35901;48.694;9.476;2022-11-03T12:29:42;6.60;;;6.00;;
50012;SDS011;35901;48.694;9.476;2022-11-03T12:32:07;9.13;;;7.10;;
50012;SDS011;35901;48.694;9.476;2022-11-03T12:34:33;8.93;;;6.93;;
50012;SDS011;35901;48.694;9.476;2022-11-03T12:36:59;7.83;;;6.40;;
50012;SDS011;35901;48.694;9.476;2022-11-03T12:39:24;8.33;;;6.10;;
50012;SDS011;35901;48.694;9.476;2022-11-03T12:41:50;6.87;;;6.17;;
50012;SDS011;35901;48.694;9.476;2022-11-03T12:44:16;6.77;;;6.07;;
50012;SDS011;35901;48.694;9.476;2022-11-03T12:46:41;6.93;;;6.23;;
50012;SDS011;35901;48.694;9.476;2022-11-03T12:49:07;9.13;;;6.73;;
50012;SDS011;35901;48.694;9.476;2022-11-03T12:51:32;10.30;;;8.23;;
50012;SDS011;35901;48.694;9.476;2022-11-03T12:53:58;8.87;;;6.63;;
50012;SDS011;35901;48.694;9.476;2022-11-03T12:56:23;8.00;;;7.20;;
50012;SDS011;35901;48.694;9.476;2022-11-03T12:58:49;9.23;;;7.33;;
50012;SDS011;35901;48.694;9.476;2022-11-03T13:01:15;7.83;;;7.03;;
50012;SDS011;35901;48.694;9.476;2022-11-03T13:03:41;9.87;;;8.00;;
50012;SDS011;35901;48.694;9.476;2022-11-03T13:06:07;10.17;;;7.93;;
50012;SDS011;35901;48.694;9.476;2022-11-03T13:08:34;8.87;;;7.83;;
50012;SDS011;35901;48.694;9.476;2022-11-03T13:11:00;7.67;;;6.93;;
50012;SDS011;35901;48.694;9.476;2022-11-03T13:13:26;9.43;;;8.00;;
50012;SDS011;35901;48.694;9.476;2022-11-03T13:15:52;8.47;;;7.23;;
50012;SDS011;35901;48.694;9.476;2022-11-03T13:18:18;9.60;;;7.90;;
50012;SDS011;35901;48.694;9.476;2022-11-03T13:20:44;9.03;;;7.60;;
50012;SDS011;35901;48.694;9.476;2022-11-03T13:23:10;9.17;;;8.00;;
50012;SDS011;35901;48.694;9.476;2022-11-03T13:25:36;9.20;;;8.20;;
50012;SDS011;35901;48.694;9.476;2022-11-03T13:28:02;9.03;;;7.90;;
50012;SDS011;35901;48.694;9.476;2022-11-03T13:30:28;7.93;;;7.13;;
50012;SDS011;35901;48.694;9.476;2022-11-03T13:32:54;6.47;;;5.87;;
50012;SDS011;35901;48.694;9.476;2022-11-03T13:35:20;8.10;;;7.30;;
50012;SDS011;35901;48.694;9.476;2022-11-03T13:37:45;11.23;;;6.60;;
50012;SDS011;35901;48.694;9.476;2022-11-03T13:40:11;7.37;;;6.63;;
50012;SDS011;35901;48.694;9.476;2022-11-03T13:42:38;7.83;;;5.80;;
50012;SDS011;35901;48.694;9.476;2022-11-03T13:45:04;9.57;;;6.40;;
50012;SDS011;35901;48.694;9.476;2022-11-03T13:47:31;6.80;;;6.03;;
50012;SDS011;35901;48.694;9.476;2022-11-03T13:49:57;9.67;;;6.50;;
50012;SDS011;35901;48.694;9.476;2022-11-03T13:52:24;9.47;;;6.80;;
50012;SDS011;35901;48.694;9.476;2022-11-03T13:54:51;7.67;;;6.60;;
50012;SDS011;35901;48.694;9.476;2022-11-03T13:57:17;7.90;;;6.23;;
50012;SDS011;35901;48.694;9.476;2022-11-03T13:59:43;7.57;;;6.73;;
50012;SDS011;35901;48.694;9.476;2022-11-03T14:02:09;8.80;;;6.10;;
50012;SDS011;35901;48.694;9.476;2022-11-03T14:04:36;8.00;;;6.43;;
50012;SDS011;35901;48.694;9.476;2022-11-03T14:07:03;8.50;;;7.10;;
50012;SDS011;35901;48.694;9.476;2022-11-03T14:09:29;9.07;;;6.73;;
50012;SDS011;35901;48.694;9.476;2022-11-03T14:11:55;7.73;;;5.87;;
50012;SDS011;35901;48.694;9.476;2022-11-03T14:14:40;7.10;;;5.80;;
50012;SDS011;35901;48.694;9.476;2022-11-03T14:17:07;6.33;;;5.70;;
50012;SDS011;35901;48.694;9.476;2022-11-03T14:19:33;5.40;;;4.90;;
50012;SDS011;35901;48.694;9.476;2022-11-03T14:21:59;6.40;;;5.10;;
50012;SDS011;35901;48.694;9.476;2022-11-03T14:24:25;7.43;;;5.23;;
50012;SDS011;35901;48.694;9.476;2022-11-03T14:26:51;7.30;;;5.03;;
50012;SDS011;35901;48.694;9.476;2022-11-03T14:29:16;6.43;;;5.73;;
50012;SDS011;35901;48.694;9.476;2022-11-03T14:31:42;8.90;;;5.90;;
50012;SDS011;35901;48.694;9.476;2022-11-03T14:34:08;9.30;;;5.90;;
50012;SDS011;35901;48.694;9.476;2022-11-03T14:36:33;9.67;;;5.70;;
50012;SDS011;35901;48.694;9.476;2022-11-03T14:38:59;7.93;;;5.50;;
50012;SDS011;35901;48.694;9.476;2022-11-03T14:41:25;9.17;;;6.20;;
50012;SDS011;35901;48.694;9.476;2022-11-03T14:44:09;7.50;;;5.70;;
50012;SDS011;35901;48.694;9.476;2022-11-03T14:46:35;9.40;;;5.97;;
50012;SDS011;35901;48.694;9.476;2022-11-03T14:49:07;8.13;;;6.40;;
50012;SDS011;35901;48.694;9.476;2022-11-03T14:51:53;5.90;;;5.37;;
50012;SDS011;35901;48.694;9.476;2022-11-03T14:54:24;8.37;;;6.07;;
50012;SDS011;35901;48.694;9.476;2022-11-03T14:56:50;6.87;;;6.17;;
50012;SDS011;35901;48.694;9.476;2022-11-03T14:59:20;7.43;;;6.07;;
50012;SDS011;35901;48.694;9.476;2022-11-03T15:01:46;7.97;;;5.93;;
50012;SDS011;35901;48.694;9.476;2022-11-03T15:04:13;7.83;;;7.03;;
50012;SDS011;35901;48.694;9.476;2022-11-03T15:06:39;9.07;;;7.40;;
50012;SDS011;35901;48.694;9.476;2022-11-03T15:09:05;9.90;;;7.30;;
50012;SDS011;35901;48.694;9.476;2022-11-03T15:11:32;10.10;;;7.73;;
50012;SDS011;35901;48.694;9.476;2022-11-03T15:13:58;9.67;;;8.03;;
50012;SDS011;35901;48.694;9.476;2022-11-03T15:16:24;8.23;;;7.20;;
50012;SDS011;35901;48.694;9.476;2022-11-03T15:18:49;8.60;;;7.03;;
50012;SDS011;35901;48.694;9.476;2022-11-03T15:21:15;9.10;;;6.83;;
50012;SDS011;35901;48.694;9.476;2022-11-03T15:23:42;12.27;;;8.20;;
50012;SDS011;35901;48.694;9.476;2022-11-03T15:26:07;10.23;;;8.43;;
50012;SDS011;35901;48.694;9.476;2022-11-03T15:28:33;10.53;;;8.70;;
50012;SDS011;35901;48.694;9.476;2022-11-03T15:30:59;10.27;;;8.07;;
50012;SDS011;35901;48.694;9.476;2022-11-03T15:33:25;9.47;;;7.73;;
50012;SDS011;35901;48.694;9.476;2022-11-03T15:35:51;8.60;;;7.70;;
50012;SDS011;35901;48.694;9.476;2022-11-03T15:38:16;8.07;;;7.23;;
50012;SDS011;35901;48.694;9.476;2022-11-03T15:40:43;12.07;;;8.10;;
50012;SDS011;35901;48.694;9.476;2022-11-03T15:43:09;8.77;;;7.77;;
50012;SDS011;35901;48.694;9.476;2022-11-03T15:45:35;9.67;;;7.80;;
50012;SDS011;35901;48.694;9.476;2022-11-03T15:48:01;8.90;;;7.27;;
50012;SDS011;35901;48.694;9.476;2022-11-03T15:50:27;9.87;;;7.47;;
50012;SDS011;35901;48.694;9.476;2022-11-03T15:52:53;12.20;;;7.67;;
50012;SDS011;35901;48.694;9.476;2022-11-03T15:55:19;8.63;;;7.73;;
50012;SDS011;35901;48.694;9.476;2022-11-03T15:57:46;11.13;;;9.00;;